sensor_id;sensor_type;location;lat;lon;timestamp;pressure;altitude;pressure_sealevel;temperature;humidity
967;BME280;56108;48.730;9.304;2022-07-30T00:00:19;97656.03;;;16.06;100.00
967;BME280;56108;48.730;9.304;2022-07-30T00:02:29;97656.88;;;16.07;100.00
967;BME280;56108;48.730;9.304;2022-07-30T00:04:37;97662.25;;;16.07;100.00
967;BME280;56108;48.730;9.304;2022-07-30T00:06:46;97667.06;;;16.03;99.96
967;BME280;56108;48.730;9.304;2022-07-30T00:08:54;97675.41;;;16.10;99.44
967;BME280;56108;48.730;9.304;2022-07-30T00:11:03;97668.75;;;15.95;100.00
967;BME280;56108;48.730;9.304;2022-07-30T00:13:11;97673.81;;;15.88;100.00
967;BME280;56108;48.730;9.304;2022-07-30T00:15:22;97670.41;;;15.86;99.39
967;BME280;56108;48.730;9.304;2022-07-30T00:17:31;97671.25;;;15.86;98.91
967;BME280;56108;48.730;9.304;2022-07-30T00:19:40;97674.09;;;15.85;98.72
967;BME280;56108;48.730;9.304;2022-07-30T00:21:49;97671.81;;;15.80;99.09
967;BME280;56108;48.730;9.304;2022-07-30T00:23:58;97670.81;;;15.72;98.89
967;BME280;56108;48.730;9.304;2022-07-30T00:26:07;97675.47;;;15.70;99.20
967;BME280;56108;48.730;9.304;2022-07-30T00:28:15;97666.56;;;15.69;99.73
967;BME280;56108;48.730;9.304;2022-07-30T00:30:26;97669.53;;;15.66;99.68
967;BME280;56108;48.730;9.304;2022-07-30T00:32:37;97675.53;;;15.58;98.44
967;BME280;56108;48.730;9.304;2022-07-30T00:34:46;97677.09;;;15.61;98.24
967;BME280;56108;48.730;9.304;2022-07-30T00:36:58;97674.53;;;15.59;97.71
967;BME280;56108;48.730;9.304;2022-07-30T00:39:08;97670.88;;;15.60;98.02
967;BME280;56108;48.730;9.304;2022-07-30T00:41:16;97675.28;;;15.61;97.94
967;BME280;56108;48.730;9.304;2022-07-30T00:43:27;97681.13;;;15.67;97.70
967;BME280;56108;48.730;9.304;2022-07-30T00:45:39;97685.25;;;15.90;97.31
967;BME280;56108;48.730;9.304;2022-07-30T00:47:48;97689.53;;;15.93;96.50
967;BME280;56108;48.730;9.304;2022-07-30T00:49:56;97685.66;;;15.85;96.25
967;BME280;56108;48.730;9.304;2022-07-30T00:52:09;97691.06;;;15.95;95.33
967;BME280;56108;48.730;9.304;2022-07-30T00:54:18;97695.72;;;15.93;95.04
967;BME280;56108;48.730;9.304;2022-07-30T00:56:28;97701.25;;;16.01;95.65
967;BME280;56108;48.730;9.304;2022-07-30T00:58:37;97693.19;;;16.01;96.49
967;BME280;56108;48.730;9.304;2022-07-30T01:00:48;97700.13;;;16.04;95.61
967;BME280;56108;48.730;9.304;2022-07-30T01:02:58;97696.47;;;16.05;95.95
967;BME280;56108;48.730;9.304;2022-07-30T01:05:07;97700.84;;;16.06;95.35
967;BME280;56108;48.730;9.304;2022-07-30T01:07:16;97700.28;;;16.12;95.71
967;BME280;56108;48.730;9.304;2022-07-30T01:09:32;97705.97;;;16.18;96.21
967;BME280;56108;48.730;9.304;2022-07-30T01:11:41;97706.81;;;16.19;96.43
967;BME280;56108;48.730;9.304;2022-07-30T01:13:50;97704.53;;;16.14;96.07
967;BME280;56108;48.730;9.304;2022-07-30T01:16:03;97708.75;;;16.17;95.93
967;BME280;56108;48.730;9.304;2022-07-30T01:18:13;97704.81;;;16.21;95.83
967;BME280;56108;48.730;9.304;2022-07-30T01:20:27;97712.72;;;16.23;95.65
967;BME280;56108;48.730;9.304;2022-07-30T01:22:49;97715.16;;;16.26;94.58
967;BME280;56108;48.730;9.304;2022-07-30T01:25:05;97720.53;;;16.26;95.31
967;BME280;56108;48.730;9.304;2022-07-30T01:27:19;97720.38;;;16.27;95.62
967;BME280;56108;48.730;9.304;2022-07-30T01:29:31;97730.41;;;16.25;95.86
967;BME280;56108;48.730;9.304;2022-07-30T01:31:40;97714.16;;;16.27;96.45
967;BME280;56108;48.730;9.304;2022-07-30T01:33:50;97719.53;;;16.36;96.96
967;BME280;56108;48.730;9.304;2022-07-30T01:36:05;97717.56;;;16.38;97.00
967;BME280;56108;48.730;9.304;2022-07-30T01:38:16;97716.16;;;16.44;96.63
967;BME280;56108;48.730;9.304;2022-07-30T01:40:28;97717.56;;;16.38;96.74
967;BME280;56108;48.730;9.304;2022-07-30T01:42:40;97717.56;;;16.29;96.45
967;BME280;56108;48.730;9.304;2022-07-30T01:44:50;97722.78;;;16.21;97.19
967;BME280;56108;48.730;9.304;2022-07-30T01:47:00;97723.75;;;16.10;97.52
967;BME280;56108;48.730;9.304;2022-07-30T01:49:15;97718.09;;;16.03;97.82
967;BME280;56108;48.730;9.304;2022-07-30T01:51:25;97723.41;;;15.94;97.28
967;BME280;56108;48.730;9.304;2022-07-30T01:53:42;97723.53;;;15.92;97.06
967;BME280;56108;48.730;9.304;2022-07-30T01:55:55;97722.44;;;15.95;97.79
967;BME280;56108;48.730;9.304;2022-07-30T01:58:09;97719.44;;;15.88;97.29
967;BME280;56108;48.730;9.304;2022-07-30T02:00:22;97725.06;;;15.85;97.42
967;BME280;56108;48.730;9.304;2022-07-30T02:02:36;97726.91;;;15.84;97.20
967;BME280;56108;48.730;9.304;2022-07-30T02:04:47;97723.38;;;15.84;97.17
967;BME280;56108;48.730;9.304;2022-07-30T02:07:00;97726.66;;;15.87;95.92
967;BME280;56108;48.730;9.304;2022-07-30T02:09:10;97731.03;;;15.88;95.07
967;BME280;56108;48.730;9.304;2022-07-30T02:11:22;97735.56;;;15.88;94.98
967;BME280;56108;48.730;9.304;2022-07-30T02:13:54;97739.78;;;15.90;94.25
967;BME280;56108;48.730;9.304;2022-07-30T02:16:07;97732.88;;;15.88;94.04
967;BME280;56108;48.730;9.304;2022-07-30T02:18:22;97741.78;;;15.88;94.21
967;BME280;56108;48.730;9.304;2022-07-30T02:20:34;97727.72;;;15.75;95.47
967;BME280;56108;48.730;9.304;2022-07-30T02:22:48;97730.56;;;15.74;96.26
967;BME280;56108;48.730;9.304;2022-07-30T02:25:02;97723.75;;;15.70;97.36
967;BME280;56108;48.730;9.304;2022-07-30T02:27:14;97719.88;;;15.62;95.98
967;BME280;56108;48.730;9.304;2022-07-30T02:29:25;97732.47;;;15.62;94.75
967;BME280;56108;48.730;9.304;2022-07-30T02:31:34;97730.44;;;15.54;94.80
967;BME280;56108;48.730;9.304;2022-07-30T02:33:46;97729.28;;;15.47;95.64
967;BME280;56108;48.730;9.304;2022-07-30T02:35:58;97727.97;;;15.42;95.22
967;BME280;56108;48.730;9.304;2022-07-30T02:38:17;97730.47;;;15.33;95.36
967;BME280;56108;48.730;9.304;2022-07-30T02:40:27;97727.69;;;15.35;96.01
967;BME280;56108;48.730;9.304;2022-07-30T02:42:37;97726.03;;;15.23;95.83
967;BME280;56108;48.730;9.304;2022-07-30T02:44:51;97740.81;;;15.17;95.93
967;BME280;56108;48.730;9.304;2022-07-30T02:47:01;97729.94;;;15.19;96.90
967;BME280;56108;48.730;9.304;2022-07-30T02:49:33;97738.53;;;15.12;97.14
967;BME280;56108;48.730;9.304;2022-07-30T02:51:45;97741.75;;;15.06;96.90
967;BME280;56108;48.730;9.304;2022-07-30T02:53:55;97741.28;;;15.01;97.46
967;BME280;56108;48.730;9.304;2022-07-30T02:56:08;97737.28;;;14.96;97.58
967;BME280;56108;48.730;9.304;2022-07-30T02:58:22;97734.28;;;14.89;97.70
967;BME280;56108;48.730;9.304;2022-07-30T03:00:34;97743.97;;;15.01;97.81
967;BME280;56108;48.730;9.304;2022-07-30T03:02:45;97748.00;;;14.96;97.65
967;BME280;56108;48.730;9.304;2022-07-30T03:05:02;97751.06;;;14.91;97.95
967;BME280;56108;48.730;9.304;2022-07-30T03:07:11;97744.03;;;14.90;98.32
967;BME280;56108;48.730;9.304;2022-07-30T03:09:21;97749.53;;;15.09;98.53
967;BME280;56108;48.730;9.304;2022-07-30T03:11:30;97752.66;;;15.14;98.05
967;BME280;56108;48.730;9.304;2022-07-30T03:13:40;97749.25;;;14.92;97.52
967;BME280;56108;48.730;9.304;2022-07-30T03:15:52;97754.53;;;14.82;98.10
967;BME280;56108;48.730;9.304;2022-07-30T03:18:02;97757.63;;;14.77;98.67
967;BME280;56108;48.730;9.304;2022-07-30T03:20:14;97749.81;;;14.74;99.50
967;BME280;56108;48.730;9.304;2022-07-30T03:22:26;97749.50;;;14.68;100.00
967;BME280;56108;48.730;9.304;2022-07-30T03:24:38;97748.91;;;14.64;100.00
967;BME280;56108;48.730;9.304;2022-07-30T03:26:50;97750.25;;;14.58;100.00
967;BME280;56108;48.730;9.304;2022-07-30T03:28:59;97754.91;;;14.56;100.00
967;BME280;56108;48.730;9.304;2022-07-30T03:31:13;97753.47;;;14.52;100.00
967;BME280;56108;48.730;9.304;2022-07-30T03:33:23;97752.34;;;14.55;100.00
967;BME280;56108;48.730;9.304;2022-07-30T03:35:43;97752.84;;;14.49;100.00
967;BME280;56108;48.730;9.304;2022-07-30T03:37:53;97749.31;;;14.48;100.00
967;BME280;56108;48.730;9.304;2022-07-30T03:40:03;97746.84;;;14.45;100.00
967;BME280;56108;48.730;9.304;2022-07-30T03:42:14;97744.69;;;14.50;100.00
967;BME280;56108;48.730;9.304;2022-07-30T03:44:23;97749.78;;;14.53;100.00
967;BME280;56108;48.730;9.304;2022-07-30T03:46:37;97748.66;;;14.56;100.00
967;BME280;56108;48.730;9.304;2022-07-30T03:48:46;97758.63;;;14.65;100.00
967;BME280;56108;48.730;9.304;2022-07-30T03:50:56;97762.34;;;14.53;100.00
967;BME280;56108;48.730;9.304;2022-07-30T03:53:06;97762.91;;;14.45;100.00
967;BME280;56108;48.730;9.304;2022-07-30T03:55:35;97762.59;;;14.39;100.00
967;BME280;56108;48.730;9.304;2022-07-30T03:58:13;97767.41;;;14.56;100.00
967;BME280;56108;48.730;9.304;2022-07-30T04:00:22;97768.06;;;14.48;100.00
967;BME280;56108;48.730;9.304;2022-07-30T04:02:42;97776.66;;;14.63;100.00
967;BME280;56108;48.730;9.304;2022-07-30T04:05:08;97775.78;;;14.74;100.00
967;BME280;56108;48.730;9.304;2022-07-30T04:07:17;97785.13;;;14.79;99.54
967;BME280;56108;48.730;9.304;2022-07-30T04:09:25;97784.78;;;14.73;99.48
967;BME280;56108;48.730;9.304;2022-07-30T04:11:43;97798.25;;;14.82;98.30
967;BME280;56108;48.730;9.304;2022-07-30T04:13:54;97800.50;;;14.77;98.25
967;BME280;56108;48.730;9.304;2022-07-30T04:16:08;97795.88;;;14.68;98.09
967;BME280;56108;48.730;9.304;2022-07-30T04:18:49;97799.28;;;14.70;98.30
967;BME280;56108;48.730;9.304;2022-07-30T04:20:58;97805.47;;;14.71;98.41
967;BME280;56108;48.730;9.304;2022-07-30T04:23:20;97813.00;;;14.88;98.04
967;BME280;56108;48.730;9.304;2022-07-30T04:25:32;97817.47;;;14.87;97.14
967;BME280;56108;48.730;9.304;2022-07-30T04:27:42;97816.72;;;14.97;97.67
967;BME280;56108;48.730;9.304;2022-07-30T04:30:09;97826.22;;;15.22;97.33
967;BME280;56108;48.730;9.304;2022-07-30T04:32:20;97822.84;;;15.92;96.19
967;BME280;56108;48.730;9.304;2022-07-30T04:34:33;97837.84;;;16.75;90.48
967;BME280;56108;48.730;9.304;2022-07-30T04:36:44;97846.47;;;17.56;85.72
967;BME280;56108;48.730;9.304;2022-07-30T04:38:53;97854.78;;;18.57;79.81
967;BME280;56108;48.730;9.304;2022-07-30T04:41:01;97850.56;;;19.53;75.89
967;BME280;56108;48.730;9.304;2022-07-30T04:43:30;97860.53;;;20.30;71.91
967;BME280;56108;48.730;9.304;2022-07-30T04:45:38;97854.44;;;21.05;67.50
967;BME280;56108;48.730;9.304;2022-07-30T04:47:48;97856.69;;;21.83;63.67
967;BME280;56108;48.730;9.304;2022-07-30T04:50:26;97864.38;;;22.82;59.40
967;BME280;56108;48.730;9.304;2022-07-30T04:52:38;97866.94;;;23.61;56.72
967;BME280;56108;48.730;9.304;2022-07-30T04:54:57;97875.50;;;23.95;54.65
967;BME280;56108;48.730;9.304;2022-07-30T04:57:08;97883.63;;;24.78;52.52
967;BME280;56108;48.730;9.304;2022-07-30T04:59:17;97895.16;;;25.45;50.79
967;BME280;56108;48.730;9.304;2022-07-30T05:01:31;97900.59;;;25.45;49.41
967;BME280;56108;48.730;9.304;2022-07-30T05:03:45;97910.72;;;25.51;47.66
967;BME280;56108;48.730;9.304;2022-07-30T05:05:58;97915.56;;;26.20;46.92
967;BME280;56108;48.730;9.304;2022-07-30T05:08:12;97914.44;;;26.08;47.27
967;BME280;56108;48.730;9.304;2022-07-30T05:10:21;97923.69;;;27.52;43.57
967;BME280;56108;48.730;9.304;2022-07-30T05:12:33;97918.09;;;27.80;41.97
967;BME280;56108;48.730;9.304;2022-07-30T05:14:42;97928.47;;;28.51;41.83
967;BME280;56108;48.730;9.304;2022-07-30T05:16:54;97929.03;;;28.80;39.81
967;BME280;56108;48.730;9.304;2022-07-30T05:19:03;97936.59;;;28.84;39.67
967;BME280;56108;48.730;9.304;2022-07-30T05:21:16;97932.84;;;29.37;39.30
967;BME280;56108;48.730;9.304;2022-07-30T05:23:28;97933.50;;;29.32;39.36
967;BME280;56108;48.730;9.304;2022-07-30T05:25:47;97948.06;;;30.09;38.00
967;BME280;56108;48.730;9.304;2022-07-30T05:28:06;97942.16;;;29.74;38.42
967;BME280;56108;48.730;9.304;2022-07-30T05:30:15;97951.13;;;30.51;36.17
967;BME280;56108;48.730;9.304;2022-07-30T05:32:31;97949.13;;;30.40;36.27
967;BME280;56108;48.730;9.304;2022-07-30T05:34:40;97960.94;;;31.09;34.95
967;BME280;56108;48.730;9.304;2022-07-30T05:36:57;97965.06;;;31.18;34.39
967;BME280;56108;48.730;9.304;2022-07-30T05:39:10;97964.72;;;31.33;34.67
967;BME280;56108;48.730;9.304;2022-07-30T05:41:45;97954.00;;;31.06;35.68
967;BME280;56108;48.730;9.304;2022-07-30T05:43:58;97962.84;;;31.27;35.19
967;BME280;56108;48.730;9.304;2022-07-30T05:46:07;97954.81;;;30.63;36.88
967;BME280;56108;48.730;9.304;2022-07-30T05:48:16;97954.94;;;31.85;34.68
967;BME280;56108;48.730;9.304;2022-07-30T05:50:25;97945.03;;;31.96;35.09
967;BME280;56108;48.730;9.304;2022-07-30T05:52:37;97952.59;;;31.15;35.48
967;BME280;56108;48.730;9.304;2022-07-30T05:55:07;97952.38;;;31.54;34.60
967;BME280;56108;48.730;9.304;2022-07-30T05:57:30;97961.34;;;32.21;33.06
967;BME280;56108;48.730;9.304;2022-07-30T05:59:39;97954.28;;;32.25;32.66
967;BME280;56108;48.730;9.304;2022-07-30T06:01:57;97969.00;;;33.08;31.91
967;BME280;56108;48.730;9.304;2022-07-30T06:04:28;97963.59;;;32.78;32.57
967;BME280;56108;48.730;9.304;2022-07-30T06:06:40;97966.81;;;32.51;32.33
967;BME280;56108;48.730;9.304;2022-07-30T06:08:58;97959.41;;;32.10;34.21
967;BME280;56108;48.730;9.304;2022-07-30T06:11:06;97968.78;;;32.74;32.53
967;BME280;56108;48.730;9.304;2022-07-30T06:13:17;97969.09;;;32.42;33.62
967;BME280;56108;48.730;9.304;2022-07-30T06:15:26;97972.09;;;33.23;31.35
967;BME280;56108;48.730;9.304;2022-07-30T06:17:40;97967.81;;;32.80;31.71
967;BME280;56108;48.730;9.304;2022-07-30T06:20:28;97972.72;;;33.13;32.07
967;BME280;56108;48.730;9.304;2022-07-30T06:22:49;97982.78;;;33.31;31.93
967;BME280;56108;48.730;9.304;2022-07-30T06:25:12;97974.38;;;33.26;32.27
967;BME280;56108;48.730;9.304;2022-07-30T06:27:23;97978.56;;;33.52;31.98
967;BME280;56108;48.730;9.304;2022-07-30T06:29:36;97982.88;;;33.76;31.69
967;BME280;56108;48.730;9.304;2022-07-30T06:31:46;97986.25;;;34.86;29.46
967;BME280;56108;48.730;9.304;2022-07-30T06:33:56;97982.28;;;34.32;29.77
967;BME280;56108;48.730;9.304;2022-07-30T06:36:10;97984.75;;;34.45;30.11
967;BME280;56108;48.730;9.304;2022-07-30T06:38:36;97988.09;;;34.97;28.83
967;BME280;56108;48.730;9.304;2022-07-30T06:40:52;97980.59;;;35.53;28.03
967;BME280;56108;48.730;9.304;2022-07-30T06:43:26;97973.13;;;33.57;32.72
967;BME280;56108;48.730;9.304;2022-07-30T06:45:56;97974.03;;;32.99;32.80
967;BME280;56108;48.730;9.304;2022-07-30T06:48:10;97980.28;;;34.44;29.22
967;BME280;56108;48.730;9.304;2022-07-30T06:50:19;97976.41;;;34.28;31.25
967;BME280;56108;48.730;9.304;2022-07-30T06:52:27;97984.94;;;35.27;30.23
967;BME280;56108;48.730;9.304;2022-07-30T06:54:35;97988.44;;;35.40;28.77
967;BME280;56108;48.730;9.304;2022-07-30T06:57:01;97979.00;;;33.89;31.14
967;BME280;56108;48.730;9.304;2022-07-30T06:59:10;97982.09;;;34.67;29.89
967;BME280;56108;48.730;9.304;2022-07-30T07:01:38;97976.13;;;33.96;33.00
967;BME280;56108;48.730;9.304;2022-07-30T07:03:46;97982.19;;;34.10;31.09
967;BME280;56108;48.730;9.304;2022-07-30T07:05:55;97992.75;;;35.74;28.07
967;BME280;56108;48.730;9.304;2022-07-30T07:08:05;97992.16;;;34.27;27.17
967;BME280;56108;48.730;9.304;2022-07-30T07:10:27;97999.50;;;34.50;27.57
967;BME280;56108;48.730;9.304;2022-07-30T07:13:10;97991.06;;;36.22;27.52
967;BME280;56108;48.730;9.304;2022-07-30T07:15:18;97994.91;;;36.75;26.33
967;BME280;56108;48.730;9.304;2022-07-30T07:17:43;97990.44;;;30.77;31.75
967;BME280;56108;48.730;9.304;2022-07-30T07:20:04;97976.16;;;31.30;33.38
967;BME280;56108;48.730;9.304;2022-07-30T07:22:21;97981.41;;;33.57;31.80
967;BME280;56108;48.730;9.304;2022-07-30T07:24:29;97992.28;;;35.55;30.26
967;BME280;56108;48.730;9.304;2022-07-30T07:26:47;97993.63;;;36.02;29.21
967;BME280;56108;48.730;9.304;2022-07-30T07:28:59;98003.28;;;35.34;27.86
967;BME280;56108;48.730;9.304;2022-07-30T07:31:10;98008.53;;;35.13;26.46
967;BME280;56108;48.730;9.304;2022-07-30T07:33:38;97991.44;;;36.31;27.04
967;BME280;56108;48.730;9.304;2022-07-30T07:35:52;97976.47;;;36.32;25.54
967;BME280;56108;48.730;9.304;2022-07-30T07:38:05;97978.75;;;36.35;26.38
967;BME280;56108;48.730;9.304;2022-07-30T07:40:15;97988.78;;;36.73;24.85
967;BME280;56108;48.730;9.304;2022-07-30T07:42:23;97983.81;;;36.16;24.43
967;BME280;56108;48.730;9.304;2022-07-30T07:44:36;97977.59;;;36.63;25.53
967;BME280;56108;48.730;9.304;2022-07-30T07:46:45;97977.13;;;34.35;27.36
967;BME280;56108;48.730;9.304;2022-07-30T07:48:54;97980.22;;;36.43;25.89
967;BME280;56108;48.730;9.304;2022-07-30T07:51:12;97974.75;;;35.72;26.49
967;BME280;56108;48.730;9.304;2022-07-30T07:53:42;97977.22;;;35.95;26.46
967;BME280;56108;48.730;9.304;2022-07-30T07:56:10;97985.66;;;35.01;25.89
967;BME280;56108;48.730;9.304;2022-07-30T07:58:19;97980.34;;;35.16;25.44
967;BME280;56108;48.730;9.304;2022-07-30T08:00:36;97976.00;;;34.87;27.01
967;BME280;56108;48.730;9.304;2022-07-30T08:02:47;97977.31;;;35.35;26.97
967;BME280;56108;48.730;9.304;2022-07-30T08:04:57;97967.34;;;33.99;29.27
967;BME280;56108;48.730;9.304;2022-07-30T08:07:25;97961.34;;;32.63;30.53
967;BME280;56108;48.730;9.304;2022-07-30T08:09:37;97968.25;;;32.42;29.21
967;BME280;56108;48.730;9.304;2022-07-30T08:11:57;97968.59;;;31.43;30.50
967;BME280;56108;48.730;9.304;2022-07-30T08:14:26;97975.03;;;30.76;31.67
967;BME280;56108;48.730;9.304;2022-07-30T08:17:00;97967.59;;;31.38;31.05
967;BME280;56108;48.730;9.304;2022-07-30T08:19:31;97960.97;;;31.57;31.28
967;BME280;56108;48.730;9.304;2022-07-30T08:21:54;97970.63;;;30.93;33.56
967;BME280;56108;48.730;9.304;2022-07-30T08:24:07;97961.38;;;30.62;32.19
967;BME280;56108;48.730;9.304;2022-07-30T08:26:15;97970.72;;;31.23;31.50
967;BME280;56108;48.730;9.304;2022-07-30T08:28:23;97963.25;;;30.44;32.30
967;BME280;56108;48.730;9.304;2022-07-30T08:30:41;97960.44;;;30.25;33.83
967;BME280;56108;48.730;9.304;2022-07-30T08:32:56;97955.41;;;28.68;35.53
967;BME280;56108;48.730;9.304;2022-07-30T08:35:06;97954.31;;;28.75;34.67
967;BME280;56108;48.730;9.304;2022-07-30T08:37:14;97945.06;;;28.17;36.86
967;BME280;56108;48.730;9.304;2022-07-30T08:39:23;97958.44;;;26.76;37.73
967;BME280;56108;48.730;9.304;2022-07-30T08:41:36;97943.09;;;25.97;38.56
967;BME280;56108;48.730;9.304;2022-07-30T08:43:46;97945.78;;;25.55;40.16
967;BME280;56108;48.730;9.304;2022-07-30T08:46:00;97936.75;;;25.54;41.42
967;BME280;56108;48.730;9.304;2022-07-30T08:48:22;97941.25;;;25.11;40.67
967;BME280;56108;48.730;9.304;2022-07-30T08:50:33;97940.16;;;24.90;41.42
967;BME280;56108;48.730;9.304;2022-07-30T08:53:14;97927.47;;;25.48;43.53
967;BME280;56108;48.730;9.304;2022-07-30T08:55:23;97941.25;;;26.05;41.82
967;BME280;56108;48.730;9.304;2022-07-30T08:59:43;97943.88;;;27.03;38.44
967;BME280;56108;48.730;9.304;2022-07-30T09:02:05;97945.94;;;26.11;38.99
967;BME280;56108;48.730;9.304;2022-07-30T09:04:33;97942.13;;;26.05;39.46
967;BME280;56108;48.730;9.304;2022-07-30T09:06:41;97942.47;;;25.95;39.25
967;BME280;56108;48.730;9.304;2022-07-30T09:08:51;97950.31;;;26.54;40.68
967;BME280;56108;48.730;9.304;2022-07-30T09:11:00;97955.75;;;27.17;39.98
967;BME280;56108;48.730;9.304;2022-07-30T09:13:22;97950.97;;;28.60;36.77
967;BME280;56108;48.730;9.304;2022-07-30T09:15:30;97952.88;;;28.66;34.17
967;BME280;56108;48.730;9.304;2022-07-30T09:17:53;97956.56;;;29.11;33.75
967;BME280;56108;48.730;9.304;2022-07-30T09:20:08;97951.94;;;29.19;34.94
967;BME280;56108;48.730;9.304;2022-07-30T09:22:18;97958.63;;;30.06;31.49
967;BME280;56108;48.730;9.304;2022-07-30T09:24:46;97963.78;;;31.39;29.92
967;BME280;56108;48.730;9.304;2022-07-30T09:27:13;97961.31;;;31.98;30.96
967;BME280;56108;48.730;9.304;2022-07-30T09:29:40;97966.97;;;32.14;27.16
967;BME280;56108;48.730;9.304;2022-07-30T09:32:07;97968.72;;;33.33;27.21
967;BME280;56108;48.730;9.304;2022-07-30T09:34:53;97967.19;;;33.13;27.19
967;BME280;56108;48.730;9.304;2022-07-30T09:37:25;97963.84;;;31.51;28.70
967;BME280;56108;48.730;9.304;2022-07-30T09:40:10;97960.69;;;30.67;30.16
967;BME280;56108;48.730;9.304;2022-07-30T09:42:38;97961.13;;;32.22;28.57
967;BME280;56108;48.730;9.304;2022-07-30T09:44:47;97965.22;;;32.32;27.63
967;BME280;56108;48.730;9.304;2022-07-30T09:46:59;97955.50;;;32.29;30.89
967;BME280;56108;48.730;9.304;2022-07-30T09:49:13;97960.19;;;31.38;30.40
967;BME280;56108;48.730;9.304;2022-07-30T09:51:37;97962.03;;;32.05;29.12
967;BME280;56108;48.730;9.304;2022-07-30T09:54:05;97967.06;;;32.38;27.36
967;BME280;56108;48.730;9.304;2022-07-30T09:56:23;97967.50;;;32.35;26.76
967;BME280;56108;48.730;9.304;2022-07-30T09:58:39;97964.72;;;30.71;29.52
967;BME280;56108;48.730;9.304;2022-07-30T10:00:55;97959.84;;;28.42;32.32
967;BME280;56108;48.730;9.304;2022-07-30T10:03:40;97946.50;;;27.73;38.09
967;BME280;56108;48.730;9.304;2022-07-30T10:06:10;97948.63;;;27.91;36.31
967;BME280;56108;48.730;9.304;2022-07-30T10:08:37;97946.34;;;28.34;36.34
967;BME280;56108;48.730;9.304;2022-07-30T10:10:54;97944.59;;;28.93;35.01
967;BME280;56108;48.730;9.304;2022-07-30T10:13:13;97942.06;;;29.04;35.91
967;BME280;56108;48.730;9.304;2022-07-30T10:15:29;97938.09;;;28.74;34.46
967;BME280;56108;48.730;9.304;2022-07-30T10:17:39;97944.22;;;28.16;36.03
967;BME280;56108;48.730;9.304;2022-07-30T10:20:14;97947.63;;;27.30;36.05
967;BME280;56108;48.730;9.304;2022-07-30T10:22:58;97939.41;;;26.61;38.67
967;BME280;56108;48.730;9.304;2022-07-30T10:25:16;97945.44;;;26.00;37.57
967;BME280;56108;48.730;9.304;2022-07-30T10:27:50;97932.81;;;25.99;38.86
967;BME280;56108;48.730;9.304;2022-07-30T10:30:06;97937.00;;;26.73;39.38
967;BME280;56108;48.730;9.304;2022-07-30T10:32:17;97923.78;;;27.72;34.13
967;BME280;56108;48.730;9.304;2022-07-30T10:34:35;97929.88;;;28.80;33.08
967;BME280;56108;48.730;9.304;2022-07-30T10:36:50;97935.28;;;29.97;33.41
967;BME280;56108;48.730;9.304;2022-07-30T10:39:01;97938.28;;;29.50;30.39
967;BME280;56108;48.730;9.304;2022-07-30T10:41:16;97934.66;;;30.26;31.48
967;BME280;56108;48.730;9.304;2022-07-30T10:44:05;97936.78;;;29.93;30.24
967;BME280;56108;48.730;9.304;2022-07-30T10:46:28;97928.47;;;29.23;31.60
967;BME280;56108;48.730;9.304;2022-07-30T10:48:40;97932.66;;;28.14;34.66
967;BME280;56108;48.730;9.304;2022-07-30T10:50:50;97926.19;;;27.41;34.65
967;BME280;56108;48.730;9.304;2022-07-30T10:53:00;97927.34;;;26.77;35.78
967;BME280;56108;48.730;9.304;2022-07-30T10:55:11;97929.81;;;26.72;34.62
967;BME280;56108;48.730;9.304;2022-07-30T10:57:20;97925.28;;;27.88;34.82
967;BME280;56108;48.730;9.304;2022-07-30T11:00:10;97933.31;;;28.56;32.34
967;BME280;56108;48.730;9.304;2022-07-30T11:02:22;97936.50;;;29.24;30.24
967;BME280;56108;48.730;9.304;2022-07-30T11:04:31;97932.78;;;29.05;31.13
967;BME280;56108;48.730;9.304;2022-07-30T11:06:39;97925.44;;;29.44;33.80
967;BME280;56108;48.730;9.304;2022-07-30T11:08:48;97927.19;;;29.32;34.07
967;BME280;56108;48.730;9.304;2022-07-30T11:13:48;97925.50;;;28.20;34.60
967;BME280;56108;48.730;9.304;2022-07-30T11:16:03;97920.66;;;28.15;35.74
967;BME280;56108;48.730;9.304;2022-07-30T11:18:12;97919.38;;;28.31;33.81
967;BME280;56108;48.730;9.304;2022-07-30T11:20:20;97910.13;;;28.52;36.47
967;BME280;56108;48.730;9.304;2022-07-30T11:22:30;97914.75;;;28.58;37.07
967;BME280;56108;48.730;9.304;2022-07-30T11:24:45;97920.03;;;28.40;33.81
967;BME280;56108;48.730;9.304;2022-07-30T11:26:53;97915.16;;;27.82;35.72
967;BME280;56108;48.730;9.304;2022-07-30T11:29:01;97916.13;;;27.48;35.05
967;BME280;56108;48.730;9.304;2022-07-30T11:31:29;97913.91;;;26.82;35.14
967;BME280;56108;48.730;9.304;2022-07-30T11:36:36;97909.38;;;27.44;35.87
967;BME280;56108;48.730;9.304;2022-07-30T11:38:55;97913.63;;;27.66;34.49
967;BME280;56108;48.730;9.304;2022-07-30T11:41:10;97903.81;;;27.98;36.30
967;BME280;56108;48.730;9.304;2022-07-30T11:43:20;97906.50;;;27.72;35.90
967;BME280;56108;48.730;9.304;2022-07-30T11:45:40;97897.09;;;27.94;34.91
967;BME280;56108;48.730;9.304;2022-07-30T11:47:52;97899.59;;;27.89;35.00
967;BME280;56108;48.730;9.304;2022-07-30T11:50:03;97902.75;;;27.86;36.04
967;BME280;56108;48.730;9.304;2022-07-30T11:52:12;97918.00;;;27.47;34.59
967;BME280;56108;48.730;9.304;2022-07-30T11:54:29;97904.91;;;27.23;34.08
967;BME280;56108;48.730;9.304;2022-07-30T11:56:50;97899.78;;;27.81;35.30
967;BME280;56108;48.730;9.304;2022-07-30T11:59:02;97902.22;;;27.43;33.37
967;BME280;56108;48.730;9.304;2022-07-30T12:01:12;97902.00;;;27.38;33.73
967;BME280;56108;48.730;9.304;2022-07-30T12:03:39;97897.59;;;27.43;36.48
967;BME280;56108;48.730;9.304;2022-07-30T12:05:48;97906.19;;;27.40;35.13
967;BME280;56108;48.730;9.304;2022-07-30T12:07:57;97894.03;;;27.43;35.55
967;BME280;56108;48.730;9.304;2022-07-30T12:10:13;97898.81;;;27.34;36.31
967;BME280;56108;48.730;9.304;2022-07-30T12:12:30;97902.44;;;27.41;34.69
967;BME280;56108;48.730;9.304;2022-07-30T12:14:39;97909.63;;;27.01;33.59
967;BME280;56108;48.730;9.304;2022-07-30T12:16:52;97901.34;;;26.88;34.92
967;BME280;56108;48.730;9.304;2022-07-30T12:19:06;97893.97;;;27.23;35.04
967;BME280;56108;48.730;9.304;2022-07-30T12:21:15;97902.44;;;27.41;34.09